sensor_id;sensor_type;location;lat;lon;timestamp;pressure;altitude;pressure_sealevel;temperature;humidity
60427;BME280;46274;47.168;27.604;2023-01-28T00:00:41;100149.44;;;-1.95;82.12
60427;BME280;46274;47.168;27.604;2023-01-28T00:06:46;100142.59;;;-1.99;81.53
60427;BME280;46274;47.168;27.604;2023-01-28T00:12:48;100154.19;;;-2.00;82.07
60427;BME280;46274;47.168;27.604;2023-01-28T00:18:55;100032.66;;;-2.67;81.64
60427;BME280;46274;47.168;27.604;2023-01-28T00:24:57;100152.47;;;-1.87;81.66
60427;BME280;46274;47.168;27.604;2023-01-28T00:31:18;100148.22;;;-1.89;81.19
60427;BME280;46274;47.168;27.604;2023-01-28T00:37:21;100153.22;;;-1.99;81.33
60427;BME280;46274;47.168;27.604;2023-01-28T00:43:24;100089.31;;;-2.25;80.59
60427;BME280;46274;47.168;27.604;2023-01-28T00:49:26;100150.41;;;-1.96;81.56
60427;BME280;46274;47.168;27.604;2023-01-28T00:55:28;100095.41;;;-2.23;81.81
60427;BME280;46274;47.168;27.604;2023-01-28T01:01:34;100146.78;;;-1.95;82.02
60427;BME280;46274;47.168;27.604;2023-01-28T01:07:37;100138.63;;;-1.92;82.43
60427;BME280;46274;47.168;27.604;2023-01-28T01:13:43;99869.94;;;-3.52;81.92
60427;BME280;46274;47.168;27.604;2023-01-28T01:19:45;100136.47;;;-1.85;81.65
60427;BME280;46274;47.168;27.604;2023-01-28T01:25:48;100136.34;;;-1.84;81.70
60427;BME280;46274;47.168;27.604;2023-01-28T01:31:50;100146.69;;;-1.79;81.79
60427;BME280;46274;47.168;27.604;2023-01-28T01:37:53;100105.66;;;-2.16;81.89
60427;BME280;46274;47.168;27.604;2023-01-28T01:43:59;100146.81;;;-1.81;82.18
60427;BME280;46274;47.168;27.604;2023-01-28T01:50:13;100118.56;;;-1.96;81.83
60427;BME280;46274;47.168;27.604;2023-01-28T01:56:20;100152.56;;;-1.74;81.74
60427;BME280;46274;47.168;27.604;2023-01-28T02:02:24;100114.16;;;-1.97;82.35
60427;BME280;46274;47.168;27.604;2023-01-28T02:08:26;100147.53;;;-1.79;82.19
60427;BME280;46274;47.168;27.604;2023-01-28T02:14:32;100124.03;;;-1.99;82.44
60427;BME280;46274;47.168;27.604;2023-01-28T02:26:55;100144.41;;;-1.71;82.56
60427;BME280;46274;47.168;27.604;2023-01-28T02:33:04;100150.41;;;-1.67;82.59
60427;BME280;46274;47.168;27.604;2023-01-28T02:39:39;99971.28;;;-2.75;82.26
60427;BME280;46274;47.168;27.604;2023-01-28T02:45:45;100171.53;;;-1.66;81.93
60427;BME280;46274;47.168;27.604;2023-01-28T03:05:40;100173.41;;;-1.68;81.28
60427;BME280;46274;47.168;27.604;2023-01-28T03:12:08;100006.31;;;-2.70;81.67
60427;BME280;46274;47.168;27.604;2023-01-28T03:18:43;100117.66;;;-1.97;81.71
60427;BME280;46274;47.168;27.604;2023-01-28T03:25:05;100164.41;;;-1.65;81.93
60427;BME280;46274;47.168;27.604;2023-01-28T03:31:28;99936.41;;;-3.12;81.37
60427;BME280;46274;47.168;27.604;2023-01-28T03:37:50;100181.78;;;-1.74;81.49
60427;BME280;46274;47.168;27.604;2023-01-28T03:43:53;100175.44;;;-1.71;81.24
60427;BME280;46274;47.168;27.604;2023-01-28T03:49:57;100122.88;;;-2.09;81.78
60427;BME280;46274;47.168;27.604;2023-01-28T03:56:01;100176.97;;;-1.67;81.73
60427;BME280;46274;47.168;27.604;2023-01-28T04:02:05;100192.31;;;-1.72;81.69
60427;BME280;46274;47.168;27.604;2023-01-28T04:08:07;100171.34;;;-1.91;82.18
60427;BME280;46274;47.168;27.604;2023-01-28T04:14:11;100187.56;;;-1.82;81.79
60427;BME280;46274;47.168;27.604;2023-01-28T04:20:14;100189.47;;;-1.69;81.70
60427;BME280;46274;47.168;27.604;2023-01-28T04:26:16;100169.47;;;-1.75;81.47
60427;BME280;46274;47.168;27.604;2023-01-28T04:32:19;100188.31;;;-1.51;81.23
60427;BME280;46274;47.168;27.604;2023-01-28T04:38:21;100214.59;;;-1.61;81.87
60427;BME280;46274;47.168;27.604;2023-01-28T04:44:27;100148.50;;;-1.80;81.56
60427;BME280;46274;47.168;27.604;2023-01-28T04:50:29;100192.31;;;-1.58;81.46
60427;BME280;46274;47.168;27.604;2023-01-28T04:56:32;100201.22;;;-1.59;81.93
60427;BME280;46274;47.168;27.604;2023-01-28T05:02:37;100040.03;;;-2.43;81.17
60427;BME280;46274;47.168;27.604;2023-01-28T05:08:39;100077.22;;;-2.29;81.81
60427;BME280;46274;47.168;27.604;2023-01-28T05:14:41;100210.41;;;-1.50;81.56
60427;BME280;46274;47.168;27.604;2023-01-28T05:20:43;100219.81;;;-1.45;81.25
60427;BME280;46274;47.168;27.604;2023-01-28T05:26:46;100223.22;;;-1.43;81.16
60427;BME280;46274;47.168;27.604;2023-01-28T05:32:48;100225.88;;;-1.43;81.00
60427;BME280;46274;47.168;27.604;2023-01-28T05:38:51;100237.84;;;-1.50;81.73
60427;BME280;46274;47.168;27.604;2023-01-28T05:44:53;100241.84;;;-1.57;82.05
60427;BME280;46274;47.168;27.604;2023-01-28T05:50:56;100145.06;;;-2.25;81.40
60427;BME280;46274;47.168;27.604;2023-01-28T05:56:57;100210.53;;;-1.95;81.59
60427;BME280;46274;47.168;27.604;2023-01-28T06:02:59;100256.66;;;-1.67;81.97
60427;BME280;46274;47.168;27.604;2023-01-28T06:09:02;100059.25;;;-2.82;81.65
60427;BME280;46274;47.168;27.604;2023-01-28T06:15:06;100211.25;;;-2.07;82.04
60427;BME280;46274;47.168;27.604;2023-01-28T06:21:08;100260.34;;;-1.70;81.77
60427;BME280;46274;47.168;27.604;2023-01-28T06:27:10;100119.06;;;-2.63;81.75
60427;BME280;46274;47.168;27.604;2023-01-28T06:33:13;100281.88;;;-1.60;82.00
60427;BME280;46274;47.168;27.604;2023-01-28T06:39:15;100286.44;;;-1.62;81.76
60427;BME280;46274;47.168;27.604;2023-01-28T06:45:23;100294.50;;;-1.64;81.32
60427;BME280;46274;47.168;27.604;2023-01-28T06:51:25;100271.31;;;-1.90;80.97
60427;BME280;46274;47.168;27.604;2023-01-28T06:57:30;100304.81;;;-1.73;80.89
60427;BME280;46274;47.168;27.604;2023-01-28T07:03:32;100309.47;;;-1.77;80.90
60427;BME280;46274;47.168;27.604;2023-01-28T07:09:38;100308.63;;;-1.78;81.19
60427;BME280;46274;47.168;27.604;2023-01-28T07:15:44;100259.41;;;-2.13;81.21
60427;BME280;46274;47.168;27.604;2023-01-28T07:21:52;100307.28;;;-1.85;81.99
60427;BME280;46274;47.168;27.604;2023-01-28T07:27:58;100301.97;;;-1.70;81.75
60427;BME280;46274;47.168;27.604;2023-01-28T07:34:01;100286.78;;;-1.83;82.17
60427;BME280;46274;47.168;27.604;2023-01-28T07:40:04;100269.50;;;-1.90;82.93
60427;BME280;46274;47.168;27.604;2023-01-28T07:46:07;100236.88;;;-1.92;82.16
60427;BME280;46274;47.168;27.604;2023-01-28T07:52:11;100292.72;;;-1.49;80.79
60427;BME280;46274;47.168;27.604;2023-01-28T07:58:17;100248.00;;;-1.71;81.31
60427;BME280;46274;47.168;27.604;2023-01-28T08:04:20;100204.91;;;-2.05;80.66
60427;BME280;46274;47.168;27.604;2023-01-28T08:10:23;99939.34;;;-3.61;80.53
60427;BME280;46274;47.168;27.604;2023-01-28T08:16:27;100293.84;;;-1.39;79.80
60427;BME280;46274;47.168;27.604;2023-01-28T08:22:31;100239.75;;;-1.66;79.60
60427;BME280;46274;47.168;27.604;2023-01-28T08:28:38;100302.03;;;-1.42;80.62
60427;BME280;46274;47.168;27.604;2023-01-28T08:34:40;100293.38;;;-1.45;81.23
60427;BME280;46274;47.168;27.604;2023-01-28T08:40:42;100183.22;;;-2.11;80.64
60427;BME280;46274;47.168;27.604;2023-01-28T08:46:44;100298.97;;;-1.36;80.63
60427;BME280;46274;47.168;27.604;2023-01-28T08:53:00;100297.56;;;-1.41;80.36
60427;BME280;46274;47.168;27.604;2023-01-28T08:59:03;100131.03;;;-2.41;80.70
60427;BME280;46274;47.168;27.604;2023-01-28T09:05:08;100232.91;;;-1.85;80.52
60427;BME280;46274;47.168;27.604;2023-01-28T09:11:17;100284.72;;;-1.35;80.83
60427;BME280;46274;47.168;27.604;2023-01-28T09:17:20;100227.78;;;-1.73;80.27
60427;BME280;46274;47.168;27.604;2023-01-28T09:23:23;100251.03;;;-1.48;80.59
60427;BME280;46274;47.168;27.604;2023-01-28T09:29:29;100258.63;;;-1.28;79.80
60427;BME280;46274;47.168;27.604;2023-01-28T09:35:34;100260.44;;;-1.28;80.16
60427;BME280;46274;47.168;27.604;2023-01-28T09:48:18;100102.44;;;-2.22;77.72
60427;BME280;46274;47.168;27.604;2023-01-28T10:00:55;100251.69;;;-1.30;79.53
60427;BME280;46274;47.168;27.604;2023-01-28T10:07:41;100250.75;;;-1.29;79.44
60427;BME280;46274;47.168;27.604;2023-01-28T10:13:44;100263.66;;;-1.23;78.75
60427;BME280;46274;47.168;27.604;2023-01-28T10:19:59;100241.34;;;-1.21;78.58
60427;BME280;46274;47.168;27.604;2023-01-28T10:26:19;100182.03;;;-1.36;77.23
60427;BME280;46274;47.168;27.604;2023-01-28T10:32:36;100229.75;;;-1.20;77.99
60427;BME280;46274;47.168;27.604;2023-01-28T10:38:44;100212.00;;;-1.19;77.32
60427;BME280;46274;47.168;27.604;2023-01-28T10:44:50;100216.38;;;-1.18;77.28
60427;BME280;46274;47.168;27.604;2023-01-28T10:51:01;100208.97;;;-1.13;76.23
60427;BME280;46274;47.168;27.604;2023-01-28T10:57:13;100210.44;;;-1.09;76.00
60427;BME280;46274;47.168;27.604;2023-01-28T11:03:28;100209.66;;;-0.97;75.87
60427;BME280;46274;47.168;27.604;2023-01-28T11:09:37;100210.97;;;-0.90;76.25
60427;BME280;46274;47.168;27.604;2023-01-28T11:16:14;100199.16;;;-0.85;74.35
60427;BME280;46274;47.168;27.604;2023-01-28T11:22:26;100185.88;;;-0.85;74.81
60427;BME280;46274;47.168;27.604;2023-01-28T11:28:39;100076.13;;;-1.42;74.70
60427;BME280;46274;47.168;27.604;2023-01-28T11:34:50;100183.38;;;-0.74;74.24
60427;BME280;46274;47.168;27.604;2023-01-28T11:41:01;100180.09;;;-0.65;74.33
60427;BME280;46274;47.168;27.604;2023-01-28T11:47:28;100185.53;;;-0.67;75.69
60427;BME280;46274;47.168;27.604;2023-01-28T11:59:55;100177.97;;;-0.60;76.53
60427;BME280;46274;47.168;27.604;2023-01-28T12:19:02;100168.03;;;-0.43;76.42
60427;BME280;46274;47.168;27.604;2023-01-28T12:26:03;100167.47;;;-0.49;76.97
60427;BME280;46274;47.168;27.604;2023-01-28T12:38:56;100168.75;;;-0.29;77.39
60427;BME280;46274;47.168;27.604;2023-01-28T12:45:20;100098.88;;;-0.71;77.34
60427;BME280;46274;47.168;27.604;2023-01-28T12:52:00;99856.75;;;-2.26;77.68
60427;BME280;46274;47.168;27.604;2023-01-28T12:58:31;100171.53;;;-0.30;77.49
60427;BME280;46274;47.168;27.604;2023-01-28T13:05:13;100047.31;;;-1.08;77.26
60427;BME280;46274;47.168;27.604;2023-01-28T13:11:20;100068.13;;;-0.88;77.80
60427;BME280;46274;47.168;27.604;2023-01-28T13:17:30;100174.44;;;-0.33;78.13
60427;BME280;46274;47.168;27.604;2023-01-28T13:30:00;100184.44;;;-0.24;78.25
60427;BME280;46274;47.168;27.604;2023-01-28T13:42:29;100166.22;;;-0.30;78.07
60427;BME280;46274;47.168;27.604;2023-01-28T13:48:55;100199.88;;;-0.16;77.47
60427;BME280;46274;47.168;27.604;2023-01-28T14:14:44;100222.38;;;-0.20;77.83
60427;BME280;46274;47.168;27.604;2023-01-28T14:21:00;100226.09;;;-0.23;78.60
60427;BME280;46274;47.168;27.604;2023-01-28T14:33:26;99939.00;;;-2.11;77.01
60427;BME280;46274;47.168;27.604;2023-01-28T14:39:31;100228.25;;;-0.15;74.95
60427;BME280;46274;47.168;27.604;2023-01-28T14:46:04;100174.88;;;-0.67;76.25
60427;BME280;46274;47.168;27.604;2023-01-28T14:58:36;100225.22;;;-0.24;75.54
60427;BME280;46274;47.168;27.604;2023-01-28T15:04:44;100243.53;;;-0.32;75.83
60427;BME280;46274;47.168;27.604;2023-01-28T15:10:48;100237.53;;;-0.48;75.60
60427;BME280;46274;47.168;27.604;2023-01-28T15:17:00;100104.06;;;-1.22;75.40
60427;BME280;46274;47.168;27.604;2023-01-28T15:23:05;100210.66;;;-0.58;75.70
60427;BME280;46274;47.168;27.604;2023-01-28T15:29:29;100262.28;;;-0.33;75.03
60427;BME280;46274;47.168;27.604;2023-01-28T15:35:32;100217.88;;;-0.60;74.95
60427;BME280;46274;47.168;27.604;2023-01-28T15:41:43;100273.66;;;-0.31;75.30
60427;BME280;46274;47.168;27.604;2023-01-28T15:48:04;100273.66;;;-0.31;76.46
60427;BME280;46274;47.168;27.604;2023-01-28T15:54:08;100278.44;;;-0.36;77.01
60427;BME280;46274;47.168;27.604;2023-01-28T16:00:17;100264.38;;;-0.38;76.60
60427;BME280;46274;47.168;27.604;2023-01-28T16:06:21;100258.69;;;-0.47;76.87
60427;BME280;46274;47.168;27.604;2023-01-28T16:12:28;100142.38;;;-1.12;76.16
60427;BME280;46274;47.168;27.604;2023-01-28T16:18:46;100290.59;;;-0.32;76.00
60427;BME280;46274;47.168;27.604;2023-01-28T16:24:56;100304.19;;;-0.37;76.54
60427;BME280;46274;47.168;27.604;2023-01-28T16:31:04;100277.75;;;-0.53;76.53
60427;BME280;46274;47.168;27.604;2023-01-28T16:37:09;100284.88;;;-0.53;76.82
60427;BME280;46274;47.168;27.604;2023-01-28T16:43:13;100321.91;;;-0.36;76.71
60427;BME280;46274;47.168;27.604;2023-01-28T16:49:19;100333.59;;;-0.38;77.05
60427;BME280;46274;47.168;27.604;2023-01-28T16:55:22;100278.19;;;-0.73;77.20
60427;BME280;46274;47.168;27.604;2023-01-28T17:01:37;100274.97;;;-0.78;77.05
60427;BME280;46274;47.168;27.604;2023-01-28T17:07:41;100344.06;;;-0.35;76.84
60427;BME280;46274;47.168;27.604;2023-01-28T17:13:43;100202.59;;;-1.25;77.10
60427;BME280;46274;47.168;27.604;2023-01-28T17:19:48;100235.41;;;-0.97;77.01
60427;BME280;46274;47.168;27.604;2023-01-28T17:25:56;100348.63;;;-0.37;77.48
60427;BME280;46274;47.168;27.604;2023-01-28T17:32:18;100152.38;;;-1.57;77.07
60427;BME280;46274;47.168;27.604;2023-01-28T17:38:20;100047.16;;;-2.29;77.65
60427;BME280;46274;47.168;27.604;2023-01-28T17:44:25;100351.34;;;-0.39;77.69
60427;BME280;46274;47.168;27.604;2023-01-28T17:50:27;100362.13;;;-0.40;77.54
60427;BME280;46274;47.168;27.604;2023-01-28T17:56:32;100362.13;;;-0.40;77.51
60427;BME280;46274;47.168;27.604;2023-01-28T18:02:46;100309.91;;;-0.70;77.37
60427;BME280;46274;47.168;27.604;2023-01-28T18:08:55;100372.56;;;-0.37;77.63
60427;BME280;46274;47.168;27.604;2023-01-28T18:14:58;100369.34;;;-0.42;77.57
60427;BME280;46274;47.168;27.604;2023-01-28T18:21:04;100271.25;;;-1.03;77.51
60427;BME280;46274;47.168;27.604;2023-01-28T18:27:07;100378.09;;;-0.40;77.73
60427;BME280;46274;47.168;27.604;2023-01-28T18:33:11;100373.34;;;-0.35;77.06
60427;BME280;46274;47.168;27.604;2023-01-28T18:39:15;100304.78;;;-0.73;76.70
60427;BME280;46274;47.168;27.604;2023-01-28T18:45:17;100381.13;;;-0.32;76.64
60427;BME280;46274;47.168;27.604;2023-01-28T18:51:25;100373.88;;;-0.30;76.61
60427;BME280;46274;47.168;27.604;2023-01-28T18:57:31;100319.31;;;-0.64;76.35
60427;BME280;46274;47.168;27.604;2023-01-28T19:03:34;100204.25;;;-1.37;75.97
60427;BME280;46274;47.168;27.604;2023-01-28T19:09:42;100280.13;;;-0.90;76.39
60427;BME280;46274;47.168;27.604;2023-01-28T19:15:44;100224.06;;;-1.28;76.36
60427;BME280;46274;47.168;27.604;2023-01-28T19:21:56;100268.16;;;-0.97;76.19
60427;BME280;46274;47.168;27.604;2023-01-28T19:27:58;100352.06;;;-0.50;76.95
60427;BME280;46274;47.168;27.604;2023-01-28T19:34:02;100379.00;;;-0.27;76.79
60427;BME280;46274;47.168;27.604;2023-01-28T19:40:11;100389.88;;;-0.30;77.23
60427;BME280;46274;47.168;27.604;2023-01-28T19:46:17;100389.88;;;-0.30;77.40
60427;BME280;46274;47.168;27.604;2023-01-28T19:52:21;100396.88;;;-0.29;77.65
60427;BME280;46274;47.168;27.604;2023-01-28T19:58:34;100410.97;;;-0.27;77.71
60427;BME280;46274;47.168;27.604;2023-01-28T20:04:36;100402.56;;;-0.21;77.41
60427;BME280;46274;47.168;27.604;2023-01-28T20:11:05;100404.03;;;-0.30;77.66
60427;BME280;46274;47.168;27.604;2023-01-28T20:17:12;100355.41;;;-0.60;77.50
60427;BME280;46274;47.168;27.604;2023-01-28T20:23:22;100405.34;;;-0.23;77.28
60427;BME280;46274;47.168;27.604;2023-01-28T20:29:33;100377.34;;;-0.42;77.38
60427;BME280;46274;47.168;27.604;2023-01-28T20:35:44;100290.78;;;-0.90;77.46
60427;BME280;46274;47.168;27.604;2023-01-28T20:41:47;100300.81;;;-0.80;76.91
60427;BME280;46274;47.168;27.604;2023-01-28T20:47:59;100353.41;;;-0.57;77.55
60427;BME280;46274;47.168;27.604;2023-01-28T20:54:09;100315.84;;;-0.79;77.56
60427;BME280;46274;47.168;27.604;2023-01-28T21:00:11;100418.44;;;-0.19;77.73
60427;BME280;46274;47.168;27.604;2023-01-28T21:06:15;100435.75;;;-0.12;77.67
60427;BME280;46274;47.168;27.604;2023-01-28T21:12:18;100321.34;;;-0.82;77.94
60427;BME280;46274;47.168;27.604;2023-01-28T21:18:21;100425.38;;;-0.17;77.60
60427;BME280;46274;47.168;27.604;2023-01-28T21:24:24;100387.22;;;-0.45;77.08
60427;BME280;46274;47.168;27.604;2023-01-28T21:30:26;100435.06;;;-0.16;77.29
60427;BME280;46274;47.168;27.604;2023-01-28T21:36:31;100432.25;;;-0.13;76.15
60427;BME280;46274;47.168;27.604;2023-01-28T21:42:35;100428.25;;;-0.20;76.59
60427;BME280;46274;47.168;27.604;2023-01-28T21:48:37;100437.75;;;-0.16;75.63
60427;BME280;46274;47.168;27.604;2023-01-28T21:54:40;100432.25;;;-0.27;76.66
60427;BME280;46274;47.168;27.604;2023-01-28T22:00:42;100441.00;;;-0.25;76.91
60427;BME280;46274;47.168;27.604;2023-01-28T22:06:45;100434.91;;;-0.27;77.31
60427;BME280;46274;47.168;27.604;2023-01-28T22:12:53;100421.59;;;-0.27;76.80
60427;BME280;46274;47.168;27.604;2023-01-28T22:18:59;100117.78;;;-2.12;76.63
60427;BME280;46274;47.168;27.604;2023-01-28T22:25:06;100218.31;;;-1.49;76.61
60427;BME280;46274;47.168;27.604;2023-01-28T22:31:13;100411.94;;;-0.28;76.77
60427;BME280;46274;47.168;27.604;2023-01-28T22:37:18;100385.06;;;-0.52;77.36
60427;BME280;46274;47.168;27.604;2023-01-28T22:43:29;100391.06;;;-0.49;78.23
60427;BME280;46274;47.168;27.604;2023-01-28T22:49:32;100397.78;;;-0.43;78.59
60427;BME280;46274;47.168;27.604;2023-01-28T22:55:35;100308.84;;;-0.95;77.16
60427;BME280;46274;47.168;27.604;2023-01-28T23:01:37;100387.50;;;-0.35;74.78
60427;BME280;46274;47.168;27.604;2023-01-28T23:07:39;100425.25;;;-0.28;75.07
60427;BME280;46274;47.168;27.604;2023-01-28T23:13:44;100420.28;;;-0.34;74.77
60427;BME280;46274;47.168;27.604;2023-01-28T23:20:05;100422.94;;;-0.34;75.15
60427;BME280;46274;47.168;27.604;2023-01-28T23:26:26;100419.16;;;-0.30;75.11
60427;BME280;46274;47.168;27.604;2023-01-28T23:32:29;100319.75;;;-0.99;75.37
60427;BME280;46274;47.168;27.604;2023-01-28T23:38:37;100418.38;;;-0.32;75.88
60427;BME280;46274;47.168;27.604;2023-01-28T23:44:41;100412.84;;;-0.29;76.25
60427;BME280;46274;47.168;27.604;2023-01-28T23:50:46;100257.31;;;-1.21;77.31
60427;BME280;46274;47.168;27.604;2023-01-28T23:56:55;100404.59;;;-0.25;78.52
